createdAt,value
2023-05-16T00:01:38.612Z,6.00
2023-05-16T00:04:05.919Z,5.60
2023-05-16T00:06:33.560Z,5.50
2023-05-16T00:09:00.695Z,5.50
2023-05-16T00:11:27.916Z,6.00
2023-05-16T00:13:55.196Z,5.50
2023-05-16T00:16:22.890Z,5.70
2023-05-16T00:18:50.111Z,6.10
2023-05-16T00:21:17.461Z,6.00
2023-05-16T00:23:44.741Z,6.00
2023-05-16T00:26:11.858Z,5.90
2023-05-16T00:28:39.622Z,6.40
2023-05-16T00:31:06.774Z,22.10
2023-05-16T00:33:34.436Z,7.20
2023-05-16T00:36:01.519Z,6.50
2023-05-16T00:38:28.737Z,6.00
2023-05-16T00:40:55.806Z,6.80
2023-05-16T00:43:22.824Z,6.90
2023-05-16T00:45:50.991Z,6.70
2023-05-16T00:48:18.375Z,6.10
2023-05-16T00:50:46.137Z,6.40
2023-05-16T00:53:13.205Z,5.70
2023-05-16T00:55:40.317Z,5.20
2023-05-16T00:58:08.038Z,5.80
2023-05-16T01:00:35.037Z,6.50
2023-05-16T01:03:02.203Z,6.50
2023-05-16T01:05:29.883Z,5.20
2023-05-16T01:07:57.252Z,5.50
2023-05-16T01:10:24.750Z,5.80
2023-05-16T01:13:09.857Z,6.00
2023-05-16T01:15:55.963Z,6.00
2023-05-16T01:18:31.501Z,6.80
2023-05-16T01:21:04.365Z,6.40
2023-05-16T01:23:53.793Z,5.60
2023-05-16T01:26:25.359Z,6.30
2023-05-16T01:28:52.864Z,6.50
2023-05-16T01:31:20.909Z,5.50
2023-05-16T01:33:48.228Z,5.00
2023-05-16T01:36:24.406Z,5.50
2023-05-16T01:39:28.579Z,5.40
2023-05-16T01:42:08.200Z,6.00
2023-05-16T01:44:53.983Z,6.20
2023-05-16T01:47:21.613Z,5.90
2023-05-16T01:49:57.648Z,6.20
2023-05-16T01:52:31.564Z,5.80
2023-05-16T01:54:58.780Z,5.80
2023-05-16T01:57:26.915Z,5.30
2023-05-16T01:59:54.076Z,5.70
2023-05-16T02:02:21.258Z,5.80
2023-05-16T02:04:48.378Z,5.70
2023-05-16T02:07:15.792Z,6.30
2023-05-16T02:09:45.313Z,6.60
2023-05-16T02:12:12.390Z,6.00
2023-05-16T02:14:39.486Z,5.40
2023-05-16T02:17:07.109Z,5.50
2023-05-16T02:19:34.186Z,5.50
2023-05-16T02:22:01.249Z,5.80
2023-05-16T02:24:28.385Z,5.50
2023-05-16T02:26:55.970Z,5.60
2023-05-16T02:29:23.120Z,6.00
2023-05-16T02:31:50.140Z,6.00
2023-05-16T02:34:17.186Z,6.50
2023-05-16T02:36:44.335Z,6.00
2023-05-16T02:39:11.588Z,6.20
2023-05-16T02:41:39.059Z,6.30
2023-05-16T02:44:06.308Z,5.40
2023-05-16T02:46:37.001Z,5.60
2023-05-16T02:51:31.694Z,5.60
2023-05-16T02:54:00.081Z,5.60
2023-05-16T02:56:27.886Z,6.10
2023-05-16T02:58:55.041Z,6.10
2023-05-16T03:01:22.314Z,5.80
2023-05-16T03:03:49.496Z,5.50
2023-05-16T03:06:16.754Z,5.70
2023-05-16T03:08:43.829Z,5.40
2023-05-16T03:11:10.879Z,5.50
2023-05-16T03:13:38.028Z,6.00
2023-05-16T03:16:06.239Z,6.00
2023-05-16T03:18:33.578Z,5.90
2023-05-16T03:21:01.728Z,6.20
2023-05-16T03:23:28.957Z,6.00
2023-05-16T03:25:56.428Z,6.20
2023-05-16T03:28:23.484Z,5.10
2023-05-16T03:30:50.658Z,6.20
2023-05-16T03:33:18.798Z,5.60
2023-05-16T03:35:46.362Z,6.20
2023-05-16T03:38:13.741Z,5.40
2023-05-16T03:40:44.923Z,6.00
2023-05-16T03:43:12.272Z,6.20
2023-05-16T03:45:40.685Z,5.90
2023-05-16T03:48:09.275Z,5.50
2023-05-16T03:50:39.474Z,5.80
2023-05-16T03:53:08.186Z,5.40
2023-05-16T03:55:35.388Z,5.90
2023-05-16T03:58:02.471Z,5.60
2023-05-16T04:00:29.858Z,6.00
2023-05-16T04:02:57.035Z,6.10
2023-05-16T04:05:24.222Z,6.10
2023-05-16T04:07:52.493Z,6.70
2023-05-16T04:10:19.789Z,6.10
2023-05-16T04:12:46.921Z,5.50
2023-05-16T04:15:14.097Z,14.90
2023-05-16T04:17:41.342Z,6.60
2023-05-16T04:20:09.894Z,9.80
2023-05-16T04:22:36.963Z,7.70
2023-05-16T04:25:04.734Z,8.90
2023-05-16T04:27:31.797Z,12.40
2023-05-16T04:30:00.339Z,10.40
2023-05-16T04:32:29.283Z,13.50
2023-05-16T04:34:57.391Z,10.30
2023-05-16T04:37:25.204Z,6.20
2023-05-16T04:39:54.893Z,5.90
2023-05-16T04:42:22.420Z,6.40
2023-05-16T04:44:50.472Z,5.90
2023-05-16T04:47:17.710Z,6.00
2023-05-16T04:49:45.014Z,6.90
2023-05-16T04:52:12.255Z,6.50
2023-05-16T04:54:39.913Z,6.30
2023-05-16T04:57:06.987Z,6.00
2023-05-16T04:59:34.137Z,6.80
2023-05-16T05:02:01.244Z,6.40
2023-05-16T05:04:28.684Z,5.30
2023-05-16T05:06:56.167Z,7.10
2023-05-16T05:09:23.752Z,6.60
2023-05-16T05:11:51.406Z,7.30
2023-05-16T05:14:19.353Z,5.90
2023-05-16T05:16:46.969Z,10.00
2023-05-16T05:19:14.807Z,6.90
2023-05-16T05:21:42.906Z,5.80
2023-05-16T05:24:11.634Z,6.60
2023-05-16T05:26:38.854Z,5.90
2023-05-16T05:29:06.483Z,6.50
2023-05-16T05:31:35.195Z,5.90
2023-05-16T05:34:03.477Z,5.50
2023-05-16T05:36:31.318Z,6.50
2023-05-16T05:38:58.446Z,6.60
2023-05-16T05:41:26.588Z,6.70
2023-05-16T05:43:53.801Z,5.50
2023-05-16T05:46:20.981Z,5.90
2023-05-16T05:48:48.258Z,5.60
2023-05-16T05:51:15.356Z,6.20
2023-05-16T05:53:42.844Z,6.00
2023-05-16T05:56:10.002Z,6.40
2023-05-16T05:58:37.160Z,8.50
2023-05-16T06:01:04.282Z,6.40
2023-05-16T06:03:32.167Z,5.40
2023-05-16T06:05:59.435Z,5.40
2023-05-16T06:08:26.733Z,5.10
2023-05-16T06:10:54.460Z,5.00
2023-05-16T06:13:21.756Z,5.30
2023-05-16T06:15:53.266Z,4.70
2023-05-16T06:18:21.222Z,4.70
2023-05-16T06:20:48.360Z,4.30
2023-05-16T06:23:15.614Z,4.90
2023-05-16T06:25:42.701Z,4.80
2023-05-16T06:28:09.899Z,5.40
2023-05-16T06:30:37.269Z,5.70
2023-05-16T06:33:04.572Z,5.00
2023-05-16T06:35:31.885Z,5.80
2023-05-16T06:37:59.266Z,4.80
2023-05-16T06:40:26.373Z,6.00
2023-05-16T06:42:58.702Z,5.30
2023-05-16T06:45:26.916Z,4.20
2023-05-16T06:47:57.279Z,4.30
2023-05-16T06:50:25.092Z,4.50
2023-05-16T06:52:52.386Z,4.20
2023-05-16T06:55:20.357Z,4.60
2023-05-16T06:57:48.342Z,4.10
2023-05-16T07:00:16.428Z,6.10
2023-05-16T07:02:43.845Z,6.80
2023-05-16T07:05:11.184Z,5.00
2023-05-16T07:07:38.436Z,4.80
2023-05-16T07:10:06.178Z,5.20
2023-05-16T07:12:33.648Z,5.40
2023-05-16T07:15:00.932Z,4.70
2023-05-16T07:17:28.087Z,4.10
2023-05-16T07:19:55.498Z,4.20
2023-05-16T07:22:22.636Z,3.70
2023-05-16T07:24:49.795Z,4.10
2023-05-16T07:27:16.937Z,3.80
2023-05-16T07:29:44.612Z,4.30
2023-05-16T07:32:14.301Z,4.10
2023-05-16T07:34:41.418Z,3.80
2023-05-16T07:37:13.208Z,3.30
2023-05-16T07:39:41.057Z,4.00
2023-05-16T07:42:09.907Z,4.70
2023-05-16T07:44:37.130Z,5.00
2023-05-16T07:47:04.377Z,4.40
2023-05-16T07:49:31.629Z,3.90
2023-05-16T07:51:58.710Z,4.00
2023-05-16T07:54:25.792Z,4.60
2023-05-16T07:56:52.871Z,4.00
2023-05-16T07:59:21.077Z,4.70
2023-05-16T08:01:48.217Z,3.70
2023-05-16T08:04:15.334Z,4.20
2023-05-16T08:06:42.390Z,4.10
2023-05-16T08:09:09.585Z,3.50
2023-05-16T08:11:37.105Z,3.70
2023-05-16T08:14:04.374Z,5.50
2023-05-16T08:16:31.956Z,4.70
2023-05-16T08:18:59.167Z,4.20
2023-05-16T08:21:27.115Z,3.90
2023-05-16T08:23:54.456Z,3.40
2023-05-16T08:26:22.274Z,3.20
2023-05-16T08:28:50.118Z,3.70
2023-05-16T08:31:17.278Z,4.00
2023-05-16T08:33:44.516Z,5.00
2023-05-16T08:36:11.549Z,4.10
2023-05-16T08:38:38.683Z,4.80
2023-05-16T08:41:06.505Z,5.00
2023-05-16T08:43:35.347Z,3.50
2023-05-16T08:46:02.500Z,3.50
2023-05-16T08:48:29.591Z,5.10
2023-05-16T08:50:56.688Z,3.80
2023-05-16T08:53:27.900Z,5.90
2023-05-16T08:55:55.348Z,3.50
2023-05-16T08:58:22.396Z,3.70
2023-05-16T09:00:49.616Z,3.10
2023-05-16T09:03:17.344Z,3.40
2023-05-16T09:05:44.595Z,3.40
2023-05-16T09:08:12.029Z,3.20
2023-05-16T09:10:39.113Z,3.30
2023-05-16T09:13:06.296Z,3.40
2023-05-16T09:15:33.830Z,3.40
2023-05-16T09:18:01.667Z,3.40
2023-05-16T09:20:28.874Z,6.50
2023-05-16T09:22:57.181Z,4.40
2023-05-16T09:25:30.205Z,3.70
2023-05-16T09:27:59.511Z,3.40
2023-05-16T09:30:34.267Z,4.60
2023-05-16T09:33:02.360Z,3.70
2023-05-16T09:38:00.049Z,3.40
2023-05-16T09:40:27.235Z,4.60
2023-05-16T09:43:07.368Z,3.90
2023-05-16T09:45:35.609Z,3.80
2023-05-16T09:48:08.811Z,4.80
2023-05-16T09:50:37.273Z,3.40
2023-05-16T09:53:04.817Z,4.20
2023-05-16T09:55:32.588Z,4.10
2023-05-16T09:58:01.123Z,3.10
2023-05-16T10:00:32.571Z,6.90
2023-05-16T10:03:04.811Z,4.20
2023-05-16T10:05:33.530Z,3.90
2023-05-16T10:08:01.552Z,3.10
2023-05-16T10:10:29.050Z,3.60
2023-05-16T10:12:56.748Z,6.40
2023-05-16T10:15:24.659Z,4.50
2023-05-16T10:17:53.556Z,3.60
2023-05-16T10:20:21.801Z,3.30
2023-05-16T10:22:53.142Z,4.90
2023-05-16T10:25:30.512Z,3.90
2023-05-16T10:27:58.773Z,4.20
2023-05-16T10:30:26.108Z,4.40
2023-05-16T10:32:53.194Z,6.30
2023-05-16T10:35:21.069Z,5.20
2023-05-16T10:37:49.188Z,4.90
2023-05-16T10:40:17.218Z,4.90
2023-05-16T10:43:04.139Z,4.80
2023-05-16T10:45:31.602Z,4.80
2023-05-16T10:47:59.902Z,5.80
2023-05-16T10:50:39.343Z,4.80
2023-05-16T10:53:33.440Z,5.30
2023-05-16T10:56:10.989Z,10.50
2023-05-16T10:58:41.052Z,5.70
2023-05-16T11:01:27.898Z,4.80
2023-05-16T11:04:02.319Z,5.30
2023-05-16T11:06:33.563Z,5.70
2023-05-16T11:09:10.900Z,6.10
2023-05-16T11:11:47.988Z,7.90
2023-05-16T11:14:23.419Z,7.40
2023-05-16T11:16:52.177Z,7.70
2023-05-16T11:19:34.007Z,6.30
2023-05-16T11:22:20.208Z,6.30
2023-05-16T11:25:07.561Z,6.80
2023-05-16T11:27:45.315Z,5.40
2023-05-16T11:30:17.895Z,5.30
2023-05-16T11:32:45.931Z,5.90
2023-05-16T11:35:15.200Z,5.50
2023-05-16T11:37:44.219Z,5.00
2023-05-16T11:40:14.559Z,5.20
2023-05-16T11:42:44.778Z,4.90
2023-05-16T11:45:13.117Z,4.70
2023-05-16T11:47:40.846Z,4.40
2023-05-16T11:50:12.086Z,8.90
2023-05-16T11:52:44.010Z,6.40
2023-05-16T11:55:11.681Z,4.60
2023-05-16T11:57:39.917Z,6.00
2023-05-16T12:00:18.605Z,6.10
2023-05-16T12:02:56.092Z,5.60
2023-05-16T12:05:27.478Z,5.10
2023-05-16T12:07:55.558Z,5.30
2023-05-16T12:10:23.155Z,5.70
2023-05-16T12:12:53.038Z,5.00
2023-05-16T12:15:21.930Z,5.30
2023-05-16T12:17:49.245Z,4.20
2023-05-16T12:20:16.797Z,4.70
2023-05-16T12:22:45.755Z,4.90
2023-05-16T12:25:28.667Z,4.80
2023-05-16T12:27:57.610Z,4.50
2023-05-16T12:30:26.536Z,4.70
2023-05-16T12:33:01.220Z,4.40
2023-05-16T12:35:33.967Z,4.00
2023-05-16T12:38:05.011Z,4.30
2023-05-16T12:40:32.720Z,5.40
2023-05-16T12:43:00.302Z,4.10
2023-05-16T12:45:28.447Z,5.60
2023-05-16T12:47:55.824Z,5.10
2023-05-16T12:50:23.271Z,3.80
2023-05-16T12:52:53.754Z,4.00
2023-05-16T12:57:49.197Z,4.00
2023-05-16T13:00:19.303Z,3.40
2023-05-16T13:02:47.311Z,3.80
2023-05-16T13:05:14.864Z,4.10
2023-05-16T13:07:42.055Z,4.10
2023-05-16T13:10:11.012Z,3.70
2023-05-16T13:12:39.420Z,4.20
2023-05-16T13:15:10.758Z,3.40
2023-05-16T13:17:39.202Z,3.20
2023-05-16T13:20:10.525Z,3.10
2023-05-16T13:22:37.929Z,3.40
2023-05-16T13:25:06.578Z,3.50
2023-05-16T13:27:34.388Z,3.50
2023-05-16T13:30:01.585Z,3.40
2023-05-16T13:32:28.841Z,3.80
2023-05-16T13:34:57.273Z,3.80
2023-05-16T13:37:27.521Z,3.60
2023-05-16T13:39:57.556Z,3.50
2023-05-16T13:42:24.755Z,3.00
2023-05-16T13:44:52.354Z,3.60
2023-05-16T13:47:20.080Z,3.70
2023-05-16T13:49:47.820Z,3.20
2023-05-16T13:52:15.081Z,3.30
2023-05-16T13:54:45.522Z,3.20
2023-05-16T13:57:12.621Z,3.40
2023-05-16T14:02:09.766Z,3.50
2023-05-16T14:04:37.306Z,3.50
2023-05-16T14:07:04.658Z,4.30
2023-05-16T14:09:32.171Z,2.90
2023-05-16T14:11:59.507Z,3.60
2023-05-16T14:14:26.925Z,3.50
2023-05-16T14:16:54.290Z,2.70
2023-05-16T14:19:21.926Z,3.20
2023-05-16T14:21:49.382Z,3.10
2023-05-16T14:24:16.450Z,3.30
2023-05-16T14:26:43.578Z,2.80
2023-05-16T14:29:10.809Z,3.80
2023-05-16T14:31:38.325Z,3.50
2023-05-16T14:34:05.435Z,3.10
2023-05-16T14:36:32.497Z,3.00
2023-05-16T14:38:59.802Z,3.30
2023-05-16T14:41:27.710Z,2.40
2023-05-16T14:43:56.382Z,2.80
2023-05-16T14:46:23.527Z,3.70
2023-05-16T14:48:51.417Z,3.40
2023-05-16T14:51:19.069Z,3.50
2023-05-16T14:53:47.858Z,3.20
2023-05-16T14:56:15.593Z,3.20
2023-05-16T14:58:46.254Z,2.80
2023-05-16T15:01:15.517Z,3.50
2023-05-16T15:03:54.560Z,4.60
2023-05-16T15:06:23.040Z,4.00
2023-05-16T15:08:50.355Z,3.50
2023-05-16T15:11:17.598Z,3.90
2023-05-16T15:13:44.699Z,3.50
2023-05-16T15:16:12.371Z,3.70
2023-05-16T15:18:40.671Z,3.80
2023-05-16T15:21:08.762Z,3.60
2023-05-16T15:23:36.683Z,4.20
2023-05-16T15:26:04.500Z,4.20
2023-05-16T15:28:31.739Z,4.00
2023-05-16T15:30:59.169Z,5.10
2023-05-16T15:33:26.617Z,4.40
2023-05-16T15:35:53.794Z,5.20
2023-05-16T15:38:20.918Z,4.90
2023-05-16T15:40:50.773Z,5.80
2023-05-16T15:43:25.287Z,5.10
2023-05-16T15:45:52.853Z,4.60
2023-05-16T15:48:20.944Z,6.20
2023-05-16T15:50:48.351Z,5.10
2023-05-16T15:53:16.113Z,4.90
2023-05-16T15:55:43.362Z,4.50
2023-05-16T15:58:10.516Z,4.10
2023-05-16T16:00:41.418Z,4.80
2023-05-16T16:03:10.303Z,5.50
2023-05-16T16:05:37.600Z,7.40
2023-05-16T16:08:05.498Z,8.90
2023-05-16T16:10:33.715Z,10.20
2023-05-16T16:13:02.187Z,6.10
2023-05-16T16:15:32.801Z,4.70
2023-05-16T16:18:00.998Z,4.60
2023-05-16T16:20:28.753Z,4.60
2023-05-16T16:22:59.556Z,5.40
2023-05-16T16:27:55.126Z,5.20
2023-05-16T16:30:24.487Z,5.30
2023-05-16T16:32:52.073Z,5.00
2023-05-16T16:35:19.827Z,4.80
2023-05-16T16:38:02.468Z,5.20
2023-05-16T16:40:33.837Z,5.40
2023-05-16T16:43:01.664Z,5.10
2023-05-16T16:45:29.383Z,5.50
2023-05-16T16:47:57.992Z,5.40
2023-05-16T16:50:25.277Z,6.20
2023-05-16T16:52:55.476Z,5.50
2023-05-16T16:55:22.709Z,8.40
2023-05-16T16:57:49.878Z,6.50
2023-05-16T17:00:17.595Z,13.80
2023-05-16T17:02:45.341Z,8.70
2023-05-16T17:05:14.123Z,10.70
2023-05-16T17:07:43.079Z,10.70
2023-05-16T17:10:10.542Z,8.10
2023-05-16T17:12:44.776Z,12.40
2023-05-16T17:15:12.803Z,8.30
2023-05-16T17:17:40.098Z,8.80
2023-05-16T17:20:08.021Z,7.50
2023-05-16T17:22:35.127Z,7.90
2023-05-16T17:25:03.768Z,10.30
2023-05-16T17:27:31.040Z,8.40
2023-05-16T17:29:58.257Z,7.50
2023-05-16T17:32:26.044Z,7.70
2023-05-16T17:34:54.568Z,7.60
2023-05-16T17:37:23.280Z,8.00
2023-05-16T17:39:50.731Z,7.20
2023-05-16T17:42:17.827Z,7.10
2023-05-16T17:44:44.922Z,7.60
2023-05-16T17:47:12.026Z,7.10
2023-05-16T17:49:39.440Z,7.20
2023-05-16T17:52:07.042Z,9.10
2023-05-16T17:54:34.190Z,7.50
2023-05-16T17:57:01.695Z,9.10
2023-05-16T17:59:28.767Z,8.90
2023-05-16T18:01:57.553Z,9.20
2023-05-16T18:04:24.879Z,14.80
2023-05-16T18:06:55.742Z,32.70
2023-05-16T18:11:50.650Z,20.70
2023-05-16T18:14:18.003Z,13.90
2023-05-16T18:16:45.140Z,12.20
2023-05-16T18:19:12.796Z,11.00
2023-05-16T18:21:40.187Z,10.70
2023-05-16T18:24:08.776Z,12.30
2023-05-16T18:26:36.357Z,9.50
2023-05-16T18:29:04.207Z,10.50
2023-05-16T18:31:33.752Z,11.00
2023-05-16T18:34:03.869Z,11.30
2023-05-16T18:36:31.374Z,11.70
2023-05-16T18:38:58.451Z,10.70
2023-05-16T18:41:26.145Z,10.20
2023-05-16T18:43:53.419Z,9.50
2023-05-16T18:46:20.826Z,10.90
2023-05-16T18:48:47.958Z,11.70
2023-05-16T18:51:15.038Z,11.40
2023-05-16T18:53:42.251Z,10.90
2023-05-16T18:56:09.344Z,9.90
2023-05-16T18:58:37.177Z,9.00
2023-05-16T19:01:04.925Z,8.90
2023-05-16T19:03:32.790Z,8.90
2023-05-16T19:06:01.195Z,9.30
2023-05-16T19:08:40.437Z,10.10
2023-05-16T19:11:17.096Z,10.20
2023-05-16T19:13:47.754Z,8.90
2023-05-16T19:16:15.197Z,9.30
2023-05-16T19:18:42.841Z,8.70
2023-05-16T19:21:11.163Z,7.30
2023-05-16T19:23:38.317Z,8.80
2023-05-16T19:26:05.472Z,8.50
2023-05-16T19:28:33.579Z,7.80
2023-05-16T19:31:00.952Z,7.80
2023-05-16T19:33:28.115Z,8.60
2023-05-16T19:35:58.897Z,7.80
2023-05-16T19:38:26.660Z,7.70
2023-05-16T19:40:54.368Z,7.50
2023-05-16T19:43:22.153Z,6.90
2023-05-16T19:45:49.797Z,6.90
2023-05-16T19:48:16.916Z,7.50
2023-05-16T19:50:44.141Z,7.90
2023-05-16T19:53:11.176Z,6.70
2023-05-16T19:55:38.361Z,7.40
2023-05-16T19:58:05.646Z,7.50
2023-05-16T20:00:32.799Z,7.30
2023-05-16T20:03:00.002Z,7.10
2023-05-16T20:05:27.629Z,6.90
2023-05-16T20:07:55.546Z,7.00
2023-05-16T20:10:22.720Z,6.80
2023-05-16T20:12:49.871Z,7.90
2023-05-16T20:15:17.808Z,7.40
2023-05-16T20:17:46.504Z,8.00
2023-05-16T20:20:13.646Z,8.70
2023-05-16T20:22:41.951Z,8.10
2023-05-16T20:25:10.120Z,7.50
2023-05-16T20:27:37.798Z,7.10
2023-05-16T20:30:07.007Z,7.30
2023-05-16T20:32:34.423Z,7.50
2023-05-16T20:35:04.445Z,7.00
2023-05-16T20:37:31.538Z,7.30
2023-05-16T20:39:58.667Z,7.00
2023-05-16T20:42:25.831Z,7.80
2023-05-16T20:44:52.891Z,7.60
2023-05-16T20:47:19.998Z,7.60
2023-05-16T20:49:48.707Z,7.50
2023-05-16T20:52:19.892Z,7.50
2023-05-16T20:54:50.308Z,7.80
2023-05-16T20:57:17.995Z,7.60
2023-05-16T20:59:45.135Z,12.70
2023-05-16T21:02:12.405Z,7.00
2023-05-16T21:04:39.596Z,6.60
2023-05-16T21:07:08.435Z,7.00
2023-05-16T21:09:37.161Z,6.50
2023-05-16T21:12:04.732Z,6.70
2023-05-16T21:14:31.768Z,7.60
2023-05-16T21:16:58.951Z,10.10
2023-05-16T21:19:26.070Z,7.70
2023-05-16T21:21:53.183Z,9.30
2023-05-16T21:24:20.235Z,7.20
2023-05-16T21:26:47.292Z,6.10
2023-05-16T21:29:16.081Z,5.80
2023-05-16T21:31:44.702Z,6.40
2023-05-16T21:34:12.126Z,6.30
2023-05-16T21:36:39.230Z,7.10
2023-05-16T21:39:06.406Z,6.60
2023-05-16T21:41:33.432Z,6.00
2023-05-16T21:44:00.495Z,6.40
2023-05-16T21:46:27.722Z,6.10
2023-05-16T21:48:54.986Z,5.80
2023-05-16T21:51:21.990Z,6.00
2023-05-16T21:53:49.062Z,5.20
2023-05-16T21:56:16.116Z,5.50
2023-05-16T21:58:43.252Z,4.20
2023-05-16T22:01:10.478Z,4.20
2023-05-16T22:03:37.583Z,4.20
2023-05-16T22:06:05.085Z,4.70
2023-05-16T22:08:32.616Z,4.80
2023-05-16T22:10:59.651Z,4.30
2023-05-16T22:13:26.669Z,4.50
2023-05-16T22:16:03.914Z,4.40
2023-05-16T22:18:32.608Z,5.40
2023-05-16T22:21:00.265Z,5.20
2023-05-16T22:23:27.907Z,4.80
2023-05-16T22:25:55.845Z,4.60
2023-05-16T22:28:23.334Z,4.80
2023-05-16T22:30:50.725Z,5.10
2023-05-16T22:33:18.511Z,4.40
2023-05-16T22:35:45.684Z,5.30
2023-05-16T22:38:13.757Z,6.60
2023-05-16T22:40:44.054Z,6.00
2023-05-16T22:43:12.131Z,6.60
2023-05-16T22:45:39.997Z,7.90
2023-05-16T22:48:07.811Z,9.90
2023-05-16T22:50:35.342Z,10.20
2023-05-16T22:53:02.639Z,10.30
2023-05-16T22:55:29.909Z,11.10
2023-05-16T22:58:00.708Z,10.00
2023-05-16T23:00:27.826Z,12.00
2023-05-16T23:02:55.324Z,11.60
2023-05-16T23:05:24.276Z,10.90
2023-05-16T23:07:51.990Z,10.70
2023-05-16T23:10:19.568Z,11.60
2023-05-16T23:12:46.668Z,11.30
2023-05-16T23:15:13.893Z,11.30
2023-05-16T23:17:41.129Z,11.50
2023-05-16T23:20:08.667Z,11.80
2023-05-16T23:22:36.079Z,11.50
2023-05-16T23:25:03.270Z,12.10
2023-05-16T23:27:31.909Z,14.70
2023-05-16T23:29:58.994Z,14.40
2023-05-16T23:32:26.566Z,13.10
2023-05-16T23:34:53.781Z,11.80
2023-05-16T23:37:21.151Z,13.60
2023-05-16T23:39:48.165Z,12.10
2023-05-16T23:42:15.401Z,11.80
2023-05-16T23:44:42.788Z,12.70
2023-05-16T23:47:09.995Z,12.90
2023-05-16T23:49:37.111Z,13.20
2023-05-16T23:52:06.109Z,13.20
2023-05-16T23:54:33.849Z,11.60
2023-05-16T23:57:01.177Z,11.80
2023-05-16T23:59:28.499Z,12.60
